PWSweather.com
Personal Weather Stations
Station Observations
TARRYHILL
Tarrytown, NY 10591

Tarrytown, NY 10591

Lat: 41.05185, Lon: -73.85296

Elevation: 341

Station Type: Davis Vantage Vue

www.tarrytownnyweather.com

High Low Average
Temperature 60.0°F15.6°C 37.6°F3.1°C 49.9°F9.9°C
Dew Point 35.7°F2.1°C 29.5°F-1.4°C 32.3°F0.2°C
Winds 5.8 mph 9.3 kmh Calm Calm 1.0 mph S1.6 kmh S
Wind Gusts 11.0 mph17.7 kmh -- 3.0 mph4.8 kmh
Humidity 74% 36% 52%
Pressure 29.72 in1006.4 mb 29.65 in1004.1 mb -
Precipitation 0.00 in0.0 mm - -
Hour Temp Dew Point Humidity Winds Wind Gusts Pressure Precip Precip Rate Daily Precip Total
12:00 AM 43.8°F6.6°C 29.9°F-1.2°C 58% 0.3 mph NNE0.5 kmh NNE 2.0 mph3.2 kmh 29.71 in1006.1 mb - 0.00 in0.0 mm 0.00 in0.0 mm
12:10 AM 44.2°F6.8°C 30.3°F-0.9°C 58% Calm Calm -- 29.71 in1006.1 mb - 0.00 in0.0 mm 0.00 in0.0 mm
12:20 AM 44.0°F6.7°C 30.2°F-1.0°C 58% Calm Calm -- 29.71 in1006.1 mb - 0.00 in0.0 mm 0.00 in0.0 mm
12:30 AM 43.8°F6.6°C 30.0°F-1.1°C 58% 0.1 mph NW0.2 kmh NW -- 29.71 in1006.1 mb - 0.00 in0.0 mm 0.00 in0.0 mm
12:40 AM 43.8°F6.6°C 29.9°F-1.2°C 58% Calm Calm -- 29.71 in1006.1 mb - 0.00 in0.0 mm 0.00 in0.0 mm
12:50 AM 43.6°F6.4°C 30.2°F-1.0°C 59% Calm Calm -- 29.71 in1006.1 mb - 0.00 in0.0 mm 0.00 in0.0 mm
01:00 AM 43.6°F6.4°C 30.2°F-1.0°C 59% Calm Calm -- 29.70 in1005.8 mb - 0.00 in0.0 mm 0.00 in0.0 mm
01:10 AM 42.9°F6.1°C 29.5°F-1.4°C 59% Calm Calm -- 29.70 in1005.8 mb - 0.00 in0.0 mm 0.00 in0.0 mm
01:20 AM 42.3°F5.7°C 29.8°F-1.2°C 61% Calm Calm -- 29.70 in1005.8 mb - 0.00 in0.0 mm 0.00 in0.0 mm
01:30 AM 41.7°F5.4°C 30.0°F-1.1°C 63% Calm Calm -- 29.69 in1005.4 mb - 0.00 in0.0 mm 0.00 in0.0 mm
01:40 AM 41.5°F5.3°C 29.8°F-1.2°C 63% Calm Calm -- 29.69 in1005.4 mb - 0.00 in0.0 mm 0.00 in0.0 mm
01:50 AM 41.8°F5.4°C 30.1°F-1.1°C 63% Calm Calm -- 29.69 in1005.4 mb - 0.00 in0.0 mm 0.00 in0.0 mm
02:00 AM 41.7°F5.4°C 30.1°F-1.1°C 63% Calm Calm -- 29.69 in1005.4 mb - 0.00 in0.0 mm 0.00 in0.0 mm
02:10 AM 41.8°F5.4°C 30.1°F-1.1°C 63% Calm Calm 1.0 mph1.6 kmh 29.68 in1005.1 mb - 0.00 in0.0 mm 0.00 in0.0 mm
02:20 AM 42.2°F5.7°C 30.5°F-0.8°C 63% 0.2 mph NNE0.3 kmh NNE 1.0 mph1.6 kmh 29.68 in1005.1 mb - 0.00 in0.0 mm 0.00 in0.0 mm
02:30 AM 41.8°F5.4°C 30.5°F-0.8°C 64% 0.3 mph NE0.5 kmh NE -- 29.68 in1005.1 mb - 0.00 in0.0 mm 0.00 in0.0 mm
02:40 AM 41.3°F5.2°C 30.4°F-0.9°C 65% Calm Calm -- 29.68 in1005.1 mb - 0.00 in0.0 mm 0.00 in0.0 mm
02:50 AM 40.9°F4.9°C 30.4°F-0.9°C 66% Calm Calm -- 29.68 in1005.1 mb - 0.00 in0.0 mm 0.00 in0.0 mm
03:00 AM 40.7°F4.8°C 30.2°F-1.0°C 66% Calm Calm -- 29.68 in1005.1 mb - 0.00 in0.0 mm 0.00 in0.0 mm
03:10 AM 40.7°F4.8°C 30.2°F-1.0°C 66% Calm Calm 1.0 mph1.6 kmh 29.68 in1005.1 mb - 0.00 in0.0 mm 0.00 in0.0 mm
03:20 AM 41.0°F5.0°C 30.1°F-1.1°C 65% 0.1 mph ENE0.2 kmh ENE -- 29.68 in1005.1 mb - 0.00 in0.0 mm 0.00 in0.0 mm
03:30 AM 40.8°F4.9°C 30.3°F-0.9°C 66% Calm Calm -- 29.68 in1005.1 mb - 0.00 in0.0 mm 0.00 in0.0 mm
03:40 AM 40.2°F4.6°C 30.2°F-1.0°C 67% Calm Calm -- 29.68 in1005.1 mb - 0.00 in0.0 mm 0.00 in0.0 mm
03:50 AM 39.7°F4.3°C 30.0°F-1.1°C 68% Calm Calm 1.0 mph1.6 kmh 29.68 in1005.1 mb - 0.00 in0.0 mm 0.00 in0.0 mm
04:00 AM 39.5°F4.2°C 30.1°F-1.1°C 69% Calm Calm -- 29.68 in1005.1 mb - 0.00 in0.0 mm 0.00 in0.0 mm
04:10 AM 39.3°F4.1°C 30.3°F-0.9°C 70% Calm Calm -- 29.68 in1005.1 mb - 0.00 in0.0 mm 0.00 in0.0 mm
04:20 AM 39.0°F3.9°C 30.0°F-1.1°C 70% Calm Calm -- 29.68 in1005.1 mb - 0.00 in0.0 mm 0.00 in0.0 mm
04:30 AM 39.0°F3.9°C 30.0°F-1.1°C 70% Calm Calm -- 29.68 in1005.1 mb - 0.00 in0.0 mm 0.00 in0.0 mm
04:40 AM 38.8°F3.8°C 30.2°F-1.0°C 71% Calm Calm -- 29.69 in1005.4 mb - 0.00 in0.0 mm 0.00 in0.0 mm
04:50 AM 38.8°F3.8°C 30.5°F-0.8°C 72% Calm Calm -- 29.69 in1005.4 mb - 0.00 in0.0 mm 0.00 in0.0 mm
05:00 AM 38.8°F3.8°C 30.5°F-0.8°C 72% Calm Calm -- 29.69 in1005.4 mb - 0.00 in0.0 mm 0.00 in0.0 mm
05:10 AM 38.4°F3.6°C 30.2°F-1.0°C 72% Calm Calm -- 29.69 in1005.4 mb - 0.00 in0.0 mm 0.00 in0.0 mm
05:20 AM 38.3°F3.5°C 30.4°F-0.9°C 73% Calm Calm -- 29.70 in1005.8 mb - 0.00 in0.0 mm 0.00 in0.0 mm
05:30 AM 38.4°F3.6°C 30.2°F-1.0°C 72% Calm Calm -- 29.70 in1005.8 mb - 0.00 in0.0 mm 0.00 in0.0 mm
05:40 AM 38.0°F3.3°C 30.1°F-1.1°C 73% Calm Calm -- 29.70 in1005.8 mb - 0.00 in0.0 mm 0.00 in0.0 mm
05:50 AM 37.7°F3.2°C 30.2°F-1.0°C 74% Calm Calm -- 29.70 in1005.8 mb - 0.00 in0.0 mm 0.00 in0.0 mm
06:00 AM 38.0°F3.3°C 30.4°F-0.9°C 74% Calm Calm -- 29.71 in1006.1 mb - 0.00 in0.0 mm 0.00 in0.0 mm
06:10 AM 37.8°F3.2°C 30.3°F-0.9°C 74% Calm Calm -- 29.71 in1006.1 mb - 0.00 in0.0 mm 0.00 in0.0 mm
06:20 AM 37.6°F3.1°C 30.1°F-1.1°C 74% Calm Calm -- 29.71 in1006.1 mb - 0.00 in0.0 mm 0.00 in0.0 mm
06:30 AM 37.8°F3.2°C 30.3°F-0.9°C 74% Calm Calm -- 29.71 in1006.1 mb - 0.00 in0.0 mm 0.00 in0.0 mm
06:40 AM 38.0°F3.3°C 30.4°F-0.9°C 74% Calm Calm -- 29.71 in1006.1 mb - 0.00 in0.0 mm 0.00 in0.0 mm
06:50 AM 38.2°F3.4°C 30.6°F-0.8°C 74% Calm Calm -- 29.71 in1006.1 mb - 0.00 in0.0 mm 0.00 in0.0 mm
07:00 AM 38.7°F3.7°C 31.1°F-0.5°C 74% 0.1 mph ENE0.2 kmh ENE 2.0 mph3.2 kmh 29.71 in1006.1 mb - 0.00 in0.0 mm 0.00 in0.0 mm
07:10 AM 39.5°F4.2°C 31.2°F-0.4°C 72% 0.2 mph N0.3 kmh N 1.0 mph1.6 kmh 29.71 in1006.1 mb - 0.00 in0.0 mm 0.00 in0.0 mm
07:20 AM 40.1°F4.5°C 31.1°F-0.5°C 70% Calm Calm -- 29.70 in1005.8 mb - 0.00 in0.0 mm 0.00 in0.0 mm
07:30 AM 40.6°F4.8°C 31.2°F-0.4°C 69% 0.2 mph NE0.3 kmh NE -- 29.71 in1006.1 mb - 0.00 in0.0 mm 0.00 in0.0 mm
07:40 AM 41.4°F5.2°C 31.6°F-0.2°C 68% 0.3 mph E0.5 kmh E 1.0 mph1.6 kmh 29.71 in1006.1 mb - 0.00 in0.0 mm 0.00 in0.0 mm
07:50 AM 42.9°F6.1°C 31.9°F-0.1°C 65% 1.0 mph NE1.6 kmh NE 3.0 mph4.8 kmh 29.71 in1006.1 mb - 0.00 in0.0 mm 0.00 in0.0 mm
08:00 AM 44.0°F6.7°C 31.8°F-0.1°C 62% 3.1 mph ESE5.0 kmh ESE 6.0 mph9.7 kmh 29.71 in1006.1 mb - 0.00 in0.0 mm 0.00 in0.0 mm
08:10 AM 45.2°F7.3°C 32.1°F0.1°C 60% 1.6 mph N2.6 kmh N 3.0 mph4.8 kmh 29.72 in1006.4 mb - 0.00 in0.0 mm 0.00 in0.0 mm
08:20 AM 46.0°F7.8°C 32.1°F0.1°C 58% 2.5 mph NE4.0 kmh NE 2.0 mph3.2 kmh 29.72 in1006.4 mb - 0.00 in0.0 mm 0.00 in0.0 mm
08:30 AM 47.3°F8.5°C 33.2°F0.7°C 58% 0.3 mph WNW0.5 kmh WNW 3.0 mph4.8 kmh 29.72 in1006.4 mb - 0.00 in0.0 mm 0.00 in0.0 mm
08:40 AM 48.3°F9.1°C 32.4°F0.2°C 54% 1.8 mph NE2.9 kmh NE 3.0 mph4.8 kmh 29.72 in1006.4 mb - 0.00 in0.0 mm 0.00 in0.0 mm
08:50 AM 48.5°F9.2°C 33.5°F0.8°C 56% 1.2 mph SE1.9 kmh SE 2.0 mph3.2 kmh 29.72 in1006.4 mb - 0.00 in0.0 mm 0.00 in0.0 mm
09:00 AM 48.8°F9.3°C 35.1°F1.7°C 59% 3.8 mph NW6.1 kmh NW 6.0 mph9.7 kmh 29.72 in1006.4 mb - 0.00 in0.0 mm 0.00 in0.0 mm
09:10 AM 48.5°F9.2°C 35.7°F2.1°C 61% 0.2 mph NE0.3 kmh NE 1.0 mph1.6 kmh 29.72 in1006.4 mb - 0.00 in0.0 mm 0.00 in0.0 mm
09:20 AM 49.4°F9.7°C 35.6°F2.0°C 59% 0.2 mph SE0.3 kmh SE 1.0 mph1.6 kmh 29.72 in1006.4 mb - 0.00 in0.0 mm 0.00 in0.0 mm
09:30 AM 49.8°F9.9°C 34.3°F1.3°C 55% 2.5 mph NW4.0 kmh NW 4.0 mph6.4 kmh 29.72 in1006.4 mb - 0.00 in0.0 mm 0.00 in0.0 mm
09:40 AM 49.9°F9.9°C 33.9°F1.1°C 54% 0.3 mph NW0.5 kmh NW -- 29.71 in1006.1 mb - 0.00 in0.0 mm 0.00 in0.0 mm
09:50 AM 50.3°F10.2°C 34.2°F1.2°C 54% 2.5 mph SW4.0 kmh SW 4.0 mph6.4 kmh 29.72 in1006.4 mb - 0.00 in0.0 mm 0.00 in0.0 mm
10:00 AM 50.5°F10.3°C 34.9°F1.6°C 55% 2.4 mph W3.9 kmh W 5.0 mph8.0 kmh 29.72 in1006.4 mb - 0.00 in0.0 mm 0.00 in0.0 mm
10:10 AM 50.9°F10.5°C 33.9°F1.1°C 52% 3.4 mph WSW5.5 kmh WSW 5.0 mph8.0 kmh 29.71 in1006.1 mb - 0.00 in0.0 mm 0.00 in0.0 mm
10:20 AM 51.3°F10.7°C 33.8°F1.0°C 51% 2.0 mph SW3.2 kmh SW 3.0 mph4.8 kmh 29.71 in1006.1 mb - 0.00 in0.0 mm 0.00 in0.0 mm
10:30 AM 51.5°F10.8°C 33.5°F0.8°C 50% 2.2 mph NW3.5 kmh NW 4.0 mph6.4 kmh 29.71 in1006.1 mb - 0.00 in0.0 mm 0.00 in0.0 mm
10:40 AM 52.2°F11.2°C 33.6°F0.9°C 49% 1.7 mph N2.7 kmh N 3.0 mph4.8 kmh 29.71 in1006.1 mb - 0.00 in0.0 mm 0.00 in0.0 mm
10:50 AM 51.7°F10.9°C 33.1°F0.6°C 49% 2.1 mph N3.4 kmh N 3.0 mph4.8 kmh 29.71 in1006.1 mb - 0.00 in0.0 mm 0.00 in0.0 mm
11:00 AM 52.2°F11.2°C 32.6°F0.3°C 47% 1.3 mph WSW2.1 kmh WSW 4.0 mph6.4 kmh 29.71 in1006.1 mb - 0.00 in0.0 mm 0.00 in0.0 mm
11:10 AM 53.1°F11.7°C 32.8°F0.4°C 46% 2.3 mph NE3.7 kmh NE 6.0 mph9.7 kmh 29.71 in1006.1 mb - 0.00 in0.0 mm 0.00 in0.0 mm
11:20 AM 53.3°F11.8°C 31.9°F-0.1°C 44% 2.4 mph WSW3.9 kmh WSW 5.0 mph8.0 kmh 29.71 in1006.1 mb - 0.00 in0.0 mm 0.00 in0.0 mm
11:30 AM 53.8°F12.1°C 31.2°F-0.4°C 42% 4.4 mph W7.1 kmh W 7.0 mph11.3 kmh 29.70 in1005.8 mb - 0.00 in0.0 mm 0.00 in0.0 mm
11:40 AM 54.8°F12.7°C 32.7°F0.4°C 43% 2.6 mph WSW4.2 kmh WSW 3.0 mph4.8 kmh 29.70 in1005.8 mb - 0.00 in0.0 mm 0.00 in0.0 mm
11:50 AM 54.5°F12.5°C 31.8°F-0.1°C 42% 3.2 mph SE5.1 kmh SE 6.0 mph9.7 kmh 29.70 in1005.8 mb - 0.00 in0.0 mm 0.00 in0.0 mm
12:00 PM 54.8°F12.7°C 32.1°F0.1°C 42% 4.2 mph WNW6.8 kmh WNW 7.0 mph11.3 kmh 29.70 in1005.8 mb - 0.00 in0.0 mm 0.00 in0.0 mm
12:10 PM 55.7°F13.2°C 34.1°F1.2°C 44% 1.7 mph W2.7 kmh W 5.0 mph8.0 kmh 29.69 in1005.4 mb - 0.00 in0.0 mm 0.00 in0.0 mm
12:20 PM 56.2°F13.4°C 32.2°F0.1°C 40% 3.1 mph NE5.0 kmh NE 4.0 mph6.4 kmh 29.69 in1005.4 mb - 0.00 in0.0 mm 0.00 in0.0 mm
12:30 PM 55.5°F13.1°C 32.2°F0.1°C 41% 2.7 mph W4.3 kmh W 5.0 mph8.0 kmh 29.69 in1005.4 mb - 0.00 in0.0 mm 0.00 in0.0 mm
12:40 PM 55.8°F13.2°C 31.8°F-0.1°C 40% 3.5 mph WSW5.6 kmh WSW 5.0 mph8.0 kmh 29.69 in1005.4 mb - 0.00 in0.0 mm 0.00 in0.0 mm
12:50 PM 55.5°F13.1°C 32.2°F0.1°C 41% 3.3 mph NW5.3 kmh NW 4.0 mph6.4 kmh 29.68 in1005.1 mb - 0.00 in0.0 mm 0.00 in0.0 mm
01:00 PM 56.1°F13.4°C 33.3°F0.7°C 42% 2.6 mph ENE4.2 kmh ENE 8.0 mph12.9 kmh 29.68 in1005.1 mb - 0.00 in0.0 mm 0.00 in0.0 mm
01:10 PM 55.8°F13.2°C 32.4°F0.2°C 41% 2.1 mph E3.4 kmh E 6.0 mph9.7 kmh 29.68 in1005.1 mb - 0.00 in0.0 mm 0.00 in0.0 mm
01:20 PM 56.9°F13.8°C 32.2°F0.1°C 39% 5.8 mph NW9.3 kmh NW 8.0 mph12.9 kmh 29.67 in1004.7 mb - 0.00 in0.0 mm 0.00 in0.0 mm
01:30 PM 57.7°F14.3°C 33.5°F0.8°C 40% 4.2 mph N6.8 kmh N 7.0 mph11.3 kmh 29.68 in1005.1 mb - 0.00 in0.0 mm 0.00 in0.0 mm
01:40 PM 58.3°F14.6°C 32.8°F0.4°C 38% 2.2 mph NW3.5 kmh NW 5.0 mph8.0 kmh 29.68 in1005.1 mb - 0.00 in0.0 mm 0.00 in0.0 mm
01:50 PM 57.8°F14.3°C 32.3°F0.2°C 38% 3.4 mph N5.5 kmh N 8.0 mph12.9 kmh 29.67 in1004.7 mb - 0.00 in0.0 mm 0.00 in0.0 mm
02:00 PM 58.2°F14.6°C 32.7°F0.4°C 38% 4.3 mph WNW6.9 kmh WNW 9.0 mph14.5 kmh 29.68 in1005.1 mb - 0.00 in0.0 mm 0.00 in0.0 mm
02:10 PM 58.1°F14.5°C 33.3°F0.7°C 39% 3.1 mph N5.0 kmh N 5.0 mph8.0 kmh 29.68 in1005.1 mb - 0.00 in0.0 mm 0.00 in0.0 mm
02:20 PM 58.5°F14.7°C 33.6°F0.9°C 39% 2.5 mph NW4.0 kmh NW 6.0 mph9.7 kmh 29.67 in1004.7 mb - 0.00 in0.0 mm 0.00 in0.0 mm
02:30 PM 59.0°F15.0°C 33.4°F0.8°C 38% 3.8 mph W6.1 kmh W 11.0 mph17.7 kmh 29.67 in1004.7 mb - 0.00 in0.0 mm 0.00 in0.0 mm
02:40 PM 58.7°F14.8°C 33.1°F0.6°C 38% 3.6 mph NNW5.8 kmh NNW 9.0 mph14.5 kmh 29.67 in1004.7 mb - 0.00 in0.0 mm 0.00 in0.0 mm
02:50 PM 58.6°F14.8°C 32.4°F0.2°C 37% 3.9 mph NW6.3 kmh NW 8.0 mph12.9 kmh 29.67 in1004.7 mb - 0.00 in0.0 mm 0.00 in0.0 mm
03:00 PM 59.5°F15.3°C 33.2°F0.7°C 37% 2.8 mph ESE4.5 kmh ESE 8.0 mph12.9 kmh 29.67 in1004.7 mb - 0.00 in0.0 mm 0.00 in0.0 mm
03:10 PM 59.5°F15.3°C 33.2°F0.7°C 37% 2.9 mph WSW4.7 kmh WSW 6.0 mph9.7 kmh 29.66 in1004.4 mb - 0.00 in0.0 mm 0.00 in0.0 mm
03:20 PM 58.2°F14.6°C 32.0°F0.0°C 37% 2.8 mph WNW4.5 kmh WNW 7.0 mph11.3 kmh 29.66 in1004.4 mb - 0.00 in0.0 mm 0.00 in0.0 mm
03:30 PM 58.1°F14.5°C 32.0°F0.0°C 37% 4.4 mph NW7.1 kmh NW 9.0 mph14.5 kmh 29.66 in1004.4 mb - 0.00 in0.0 mm 0.00 in0.0 mm
03:40 PM 57.8°F14.3°C 32.3°F0.2°C 38% 2.0 mph NE3.2 kmh NE 3.0 mph4.8 kmh 29.66 in1004.4 mb - 0.00 in0.0 mm 0.00 in0.0 mm
03:50 PM 59.1°F15.1°C 32.8°F0.4°C 37% 2.3 mph SW3.7 kmh SW 6.0 mph9.7 kmh 29.66 in1004.4 mb - 0.00 in0.0 mm 0.00 in0.0 mm
04:00 PM 59.1°F15.1°C 32.9°F0.5°C 37% 1.4 mph NW2.3 kmh NW 4.0 mph6.4 kmh 29.66 in1004.4 mb - 0.00 in0.0 mm 0.00 in0.0 mm
04:10 PM 60.0°F15.6°C 32.9°F0.5°C 36% 2.3 mph W3.7 kmh W 4.0 mph6.4 kmh 29.66 in1004.4 mb - 0.00 in0.0 mm 0.00 in0.0 mm
04:20 PM 59.2°F15.1°C 32.3°F0.2°C 36% 1.3 mph WNW2.1 kmh WNW 2.0 mph3.2 kmh 29.65 in1004.1 mb - 0.00 in0.0 mm 0.00 in0.0 mm
04:30 PM 58.9°F14.9°C 32.0°F0.0°C 36% 3.1 mph W5.0 kmh W 3.0 mph4.8 kmh 29.65 in1004.1 mb - 0.00 in0.0 mm 0.00 in0.0 mm
04:40 PM 58.6°F14.8°C 32.3°F0.2°C 37% 1.8 mph NNW2.9 kmh NNW 4.0 mph6.4 kmh 29.65 in1004.1 mb - 0.00 in0.0 mm 0.00 in0.0 mm
04:50 PM 58.6°F14.8°C 32.4°F0.2°C 37% 0.2 mph NW0.3 kmh NW 1.0 mph1.6 kmh 29.65 in1004.1 mb - 0.00 in0.0 mm 0.00 in0.0 mm
05:00 PM 58.4°F14.7°C 32.9°F0.5°C 38% 0.6 mph NE1.0 kmh NE 1.0 mph1.6 kmh 29.65 in1004.1 mb - 0.00 in0.0 mm 0.00 in0.0 mm
05:10 PM 58.2°F14.6°C 32.7°F0.4°C 38% 1.0 mph NNW1.6 kmh NNW 3.0 mph4.8 kmh 29.65 in1004.1 mb - 0.00 in0.0 mm 0.00 in0.0 mm
05:20 PM 58.0°F14.4°C 33.2°F0.7°C 39% 0.2 mph NW0.3 kmh NW 1.0 mph1.6 kmh 29.65 in1004.1 mb - 0.00 in0.0 mm 0.00 in0.0 mm
05:30 PM 58.1°F14.5°C 32.6°F0.3°C 38% 2.8 mph NW4.5 kmh NW 5.0 mph8.0 kmh 29.65 in1004.1 mb - 0.00 in0.0 mm 0.00 in0.0 mm
05:40 PM 57.7°F14.3°C 32.9°F0.5°C 39% 0.1 mph SW0.2 kmh SW 2.0 mph3.2 kmh 29.65 in1004.1 mb - 0.00 in0.0 mm 0.00 in0.0 mm
05:50 PM 57.5°F14.2°C 32.7°F0.4°C 39% 0.4 mph NW0.6 kmh NW 2.0 mph3.2 kmh 29.65 in1004.1 mb - 0.00 in0.0 mm 0.00 in0.0 mm
06:00 PM 57.7°F14.3°C 32.9°F0.5°C 39% 1.0 mph W1.6 kmh W 1.0 mph1.6 kmh 29.65 in1004.1 mb - 0.00 in0.0 mm 0.00 in0.0 mm
06:10 PM 57.8°F14.3°C 33.6°F0.9°C 40% 1.0 mph NE1.6 kmh NE 3.0 mph4.8 kmh 29.65 in1004.1 mb - 0.00 in0.0 mm 0.00 in0.0 mm
06:20 PM 57.5°F14.2°C 33.3°F0.7°C 40% 1.7 mph N2.7 kmh N 5.0 mph8.0 kmh 29.65 in1004.1 mb - 0.00 in0.0 mm 0.00 in0.0 mm
06:30 PM 57.2°F14.0°C 33.1°F0.6°C 40% 1.7 mph WNW2.7 kmh WNW 2.0 mph3.2 kmh 29.65 in1004.1 mb - 0.00 in0.0 mm 0.00 in0.0 mm
06:40 PM 57.1°F13.9°C 33.6°F0.9°C 41% 2.0 mph NNE3.2 kmh NNE 3.0 mph4.8 kmh 29.65 in1004.1 mb - 0.00 in0.0 mm 0.00 in0.0 mm
06:50 PM 56.9°F13.8°C 33.4°F0.8°C 41% 1.9 mph WNW3.1 kmh WNW 3.0 mph4.8 kmh 29.66 in1004.4 mb - 0.00 in0.0 mm 0.00 in0.0 mm
07:00 PM 56.7°F13.7°C 33.8°F1.0°C 42% 0.3 mph NE0.5 kmh NE 1.0 mph1.6 kmh 29.66 in1004.4 mb - 0.00 in0.0 mm 0.00 in0.0 mm
07:10 PM 56.6°F13.7°C 33.8°F1.0°C 42% 0.4 mph NE0.6 kmh NE 1.0 mph1.6 kmh 29.66 in1004.4 mb - 0.00 in0.0 mm 0.00 in0.0 mm
07:20 PM 56.4°F13.6°C 33.6°F0.9°C 42% 0.7 mph WNW1.1 kmh WNW 2.0 mph3.2 kmh 29.66 in1004.4 mb - 0.00 in0.0 mm 0.00 in0.0 mm
07:30 PM 56.2°F13.4°C 34.0°F1.1°C 43% 0.5 mph N0.8 kmh N 1.0 mph1.6 kmh 29.66 in1004.4 mb - 0.00 in0.0 mm 0.00 in0.0 mm
07:40 PM 56.0°F13.3°C 33.8°F1.0°C 43% 0.8 mph N1.3 kmh N 1.0 mph1.6 kmh 29.66 in1004.4 mb - 0.00 in0.0 mm 0.00 in0.0 mm
07:50 PM 55.8°F13.2°C 34.8°F1.6°C 45% 1.6 mph NE2.6 kmh NE 6.0 mph9.7 kmh 29.67 in1004.7 mb - 0.00 in0.0 mm 0.00 in0.0 mm
08:00 PM 55.3°F12.9°C 34.9°F1.6°C 46% 2.1 mph NE3.4 kmh NE 3.0 mph4.8 kmh 29.67 in1004.7 mb - 0.00 in0.0 mm 0.00 in0.0 mm
08:10 PM 55.0°F12.8°C 35.1°F1.7°C 47% 0.7 mph WNW1.1 kmh WNW 2.0 mph3.2 kmh 29.67 in1004.7 mb - 0.00 in0.0 mm 0.00 in0.0 mm
08:20 PM 54.9°F12.7°C 35.0°F1.7°C 47% 0.8 mph N1.3 kmh N 2.0 mph3.2 kmh 29.68 in1005.1 mb - 0.00 in0.0 mm 0.00 in0.0 mm
08:30 PM 54.6°F12.6°C 33.7°F0.9°C 45% 1.8 mph NNW2.9 kmh NNW 5.0 mph8.0 kmh 29.68 in1005.1 mb - 0.00 in0.0 mm 0.00 in0.0 mm
08:40 PM 54.4°F12.4°C 33.5°F0.8°C 45% 1.2 mph NNW1.9 kmh NNW 4.0 mph6.4 kmh 29.68 in1005.1 mb - 0.00 in0.0 mm 0.00 in0.0 mm
08:50 PM 54.1°F12.3°C 32.6°F0.3°C 44% 1.6 mph N2.6 kmh N 5.0 mph8.0 kmh 29.68 in1005.1 mb - 0.00 in0.0 mm 0.00 in0.0 mm
09:00 PM 53.8°F12.1°C 32.9°F0.5°C 45% 1.6 mph NW2.6 kmh NW 4.0 mph6.4 kmh 29.68 in1005.1 mb - 0.00 in0.0 mm 0.00 in0.0 mm
09:10 PM 53.4°F11.9°C 32.0°F0.0°C 44% 3.1 mph NW5.0 kmh NW 4.0 mph6.4 kmh 29.69 in1005.4 mb - 0.00 in0.0 mm 0.00 in0.0 mm
09:20 PM 52.9°F11.6°C 31.6°F-0.2°C 44% 1.8 mph NNE2.9 kmh NNE 3.0 mph4.8 kmh 29.69 in1005.4 mb - 0.00 in0.0 mm 0.00 in0.0 mm
09:30 PM 52.5°F11.4°C 32.3°F0.2°C 46% 3.0 mph NE4.8 kmh NE 7.0 mph11.3 kmh 29.69 in1005.4 mb - 0.00 in0.0 mm 0.00 in0.0 mm
09:40 PM 52.1°F11.2°C 32.5°F0.3°C 47% 1.1 mph W1.8 kmh W 3.0 mph4.8 kmh 29.69 in1005.4 mb - 0.00 in0.0 mm 0.00 in0.0 mm
09:50 PM 51.8°F11.0°C 32.2°F0.1°C 47% 2.4 mph NW3.9 kmh NW 5.0 mph8.0 kmh 29.69 in1005.4 mb - 0.00 in0.0 mm 0.00 in0.0 mm
10:00 PM 51.5°F10.8°C 32.4°F0.2°C 48% 0.7 mph NW1.1 kmh NW 3.0 mph4.8 kmh 29.69 in1005.4 mb - 0.00 in0.0 mm 0.00 in0.0 mm
10:10 PM 51.2°F10.7°C 32.7°F0.4°C 49% 1.3 mph E2.1 kmh E 2.0 mph3.2 kmh 29.69 in1005.4 mb - 0.00 in0.0 mm 0.00 in0.0 mm
10:20 PM 51.0°F10.6°C 32.0°F0.0°C 48% 0.8 mph WSW1.3 kmh WSW 1.0 mph1.6 kmh 29.69 in1005.4 mb - 0.00 in0.0 mm 0.00 in0.0 mm
10:30 PM 50.8°F10.4°C 31.8°F-0.1°C 48% 2.9 mph NW4.7 kmh NW 6.0 mph9.7 kmh 29.69 in1005.4 mb - 0.00 in0.0 mm 0.00 in0.0 mm
10:40 PM 50.6°F10.3°C 32.1°F0.1°C 49% 0.4 mph NE0.6 kmh NE 4.0 mph6.4 kmh 29.69 in1005.4 mb - 0.00 in0.0 mm 0.00 in0.0 mm
10:50 PM 50.4°F10.2°C 32.5°F0.3°C 50% 1.2 mph ENE1.9 kmh ENE 3.0 mph4.8 kmh 29.68 in1005.1 mb - 0.00 in0.0 mm 0.00 in0.0 mm
11:00 PM 50.3°F10.2°C 32.8°F0.4°C 51% 0.6 mph NE1.0 kmh NE 1.0 mph1.6 kmh 29.69 in1005.4 mb - 0.00 in0.0 mm 0.00 in0.0 mm
11:10 PM 50.0°F10.0°C 33.1°F0.6°C 52% 1.5 mph NW2.4 kmh NW 5.0 mph8.0 kmh 29.68 in1005.1 mb - 0.00 in0.0 mm 0.00 in0.0 mm
11:20 PM 49.7°F9.8°C 33.3°F0.7°C 53% 1.0 mph NE1.6 kmh NE 3.0 mph4.8 kmh 29.68 in1005.1 mb - 0.00 in0.0 mm 0.00 in0.0 mm
11:30 PM 49.5°F9.7°C 33.1°F0.6°C 53% 1.7 mph NW2.7 kmh NW 2.0 mph3.2 kmh 29.68 in1005.1 mb - 0.00 in0.0 mm 0.00 in0.0 mm
11:40 PM 49.4°F9.7°C 33.4°F0.8°C 54% 1.2 mph NW1.9 kmh NW 2.0 mph3.2 kmh 29.68 in1005.1 mb - 0.00 in0.0 mm 0.00 in0.0 mm
11:50 PM 49.3°F9.6°C 33.3°F0.7°C 54% 1.8 mph NW2.9 kmh NW 3.0 mph4.8 kmh 29.68 in1005.1 mb - 0.00 in0.0 mm 0.00 in0.0 mm